Time;durP1;ratioP1;P1;durP2;ratioP2;P2;SDS_P1;SDS_P2;PMS_P1;PMS_P2;Temp;Humidity;BMP_temperature;BMP_pressure;BME280_temperature;BME280_humidity;BME280_pressure;Samples;Min_cycle;Max_cycle;Signal;HPM_P1;HPM_P2
2022/08/07 00:01:34;;;;;;;10.20;9.30;;;29.20;50.00;;;;;;4799274;56;21458;-32
2022/08/07 00:06:35;;;;;;;9.32;8.52;;;29.20;50.10;;;;;;4838819;56;21478;-31
2022/08/07 00:11:36;;;;;;;10.20;9.30;;;29.20;50.00;;;;;;4615515;60;21066;-33
2022/08/07 00:16:37;;;;;;;10.25;9.30;;;29.20;50.00;;;;;;4689985;56;21023;-33
2022/08/07 00:21:38;;;;;;;10.48;9.50;;;29.20;50.10;;;;;;5006823;56;21566;-34
2022/08/07 00:26:38;;;;;;;9.98;9.07;;;29.20;50.10;;;;;;4638290;56;21042;-33
2022/08/07 00:31:39;;;;;;;10.35;9.40;;;29.20;50.10;;;;;;4640379;56;21087;-33
2022/08/07 00:36:40;;;;;;;10.15;9.25;;;29.20;50.80;;;;;;5073739;56;21011;-31
2022/08/07 00:41:51;;;;;;;9.35;8.55;;;29.20;50.20;;;;;;4616033;60;21147;-31
2022/08/07 00:46:52;;;;;;;10.07;9.10;;;29.20;50.20;;;;;;4740181;56;21059;-32
2022/08/07 00:51:53;;;;;;;9.75;8.75;;;29.20;50.30;;;;;;4616310;57;21589;-29
2022/08/07 00:56:54;;;;;;;10.23;9.23;;;29.20;50.20;;;;;;4615469;60;21655;-31
2022/08/07 01:01:55;;;;;;;9.82;8.93;;;29.20;50.30;;;;;;4738542;56;21084;-32
2022/08/07 01:06:56;;;;;;;9.90;9.00;;;29.20;50.30;;;;;;4682697;56;21558;-40
2022/08/07 01:11:58;;;;;;;9.80;8.90;;;29.20;50.20;;;;;;4776958;56;21092;-33
2022/08/07 01:16:59;;;;;;;9.77;8.88;;;29.20;50.40;;;;;;4639612;56;21098;-31
2022/08/07 01:22:01;;;;;;;9.80;8.95;;;29.20;50.40;;;;;;4782369;56;21561;-33
2022/08/07 01:27:02;;;;;;;9.27;8.48;;;29.20;50.40;;;;;;4716800;56;21502;-33
2022/08/07 01:32:04;;;;;;;9.80;8.80;;;29.20;50.40;;;;;;4879982;56;21027;-32
2022/08/07 01:37:05;;;;;;;9.05;8.25;;;29.20;50.40;;;;;;4690375;56;21497;-31
2022/08/07 01:42:06;;;;;;;8.85;8.05;;;29.20;50.50;;;;;;4731676;56;21147;-31
2022/08/07 01:47:07;;;;;;;9.30;8.50;;;29.20;50.60;;;;;;4734061;56;21052;-33
2022/08/07 01:52:09;;;;;;;9.13;8.32;;;29.20;50.50;;;;;;4616448;56;21138;-29
2022/08/07 01:57:16;;;;;;;9.10;8.30;;;29.20;50.60;;;;;;4713624;56;21031;-34
2022/08/07 02:02:24;;;;;;;9.18;8.38;;;29.20;50.70;;;;;;4887004;56;21127;-32
2022/08/07 02:07:31;;;;;;;8.73;8.02;;;29.20;50.60;;;;;;4996172;56;21537;-30
2022/08/07 02:12:38;;;;;;;8.88;8.10;;;29.20;50.70;;;;;;4817313;56;21047;-29
2022/08/07 02:17:41;;;;;;;8.80;8.00;;;29.20;50.60;;;;;;4677515;56;21080;-31
2022/08/07 02:22:43;;;;;;;8.63;7.93;;;29.20;50.60;;;;;;4665223;56;21016;-31
2022/08/07 02:27:46;;;;;;;8.80;8.10;;;29.20;50.70;;;;;;4733821;56;21039;-30
2022/08/07 02:32:49;;;;;;;8.95;8.15;;;29.20;50.70;;;;;;4855932;56;21020;-30
2022/08/07 02:37:51;;;;;;;8.32;7.62;;;29.20;50.80;;;;;;4831596;56;21107;-30
2022/08/07 02:42:54;;;;;;;8.43;7.72;;;29.20;50.70;;;;;;5049103;56;21621;-30
2022/08/07 02:47:56;;;;;;;8.25;7.55;;;29.20;50.80;;;;;;4639362;56;21087;-31
2022/08/07 02:53:13;;;;;;;8.63;7.82;;;29.20;50.70;;;;;;4616318;60;21015;-32
2022/08/07 02:58:18;;;;;;;8.68;7.87;;;29.20;50.80;;;;;;4622791;56;21028;-30
2022/08/07 03:03:22;;;;;;;8.30;7.60;;;29.20;50.80;;;;;;4986933;56;21052;-31
2022/08/07 03:08:23;;;;;;;8.93;8.13;;;29.20;50.80;;;;;;4647944;56;21026;-30
2022/08/07 03:13:25;;;;;;;7.80;7.20;;;29.20;50.90;;;;;;4643307;56;21058;-34
2022/08/07 03:18:26;;;;;;;8.02;7.32;;;29.20;50.80;;;;;;4949317;56;21039;-34
2022/08/07 03:23:28;;;;;;;8.57;7.70;;;29.20;50.80;;;;;;4656712;56;21490;-33
2022/08/07 03:28:30;;;;;;;8.45;7.75;;;29.20;50.80;;;;;;4757775;56;21080;-32
2022/08/07 03:33:30;;;;;;;7.65;7.05;;;29.20;50.80;;;;;;4671027;56;21020;-32
2022/08/07 03:38:32;;;;;;;7.97;7.28;;;29.20;50.80;;;;;;4787432;56;21529;-33
2022/08/07 03:43:34;;;;;;;8.43;7.62;;;29.20;51.50;;;;;;4816364;56;21469;-32
2022/08/07 03:48:35;;;;;;;7.32;6.72;;;29.20;50.90;;;;;;4742952;56;21533;-33
2022/08/07 03:53:37;;;;;;;7.87;7.18;;;29.20;50.90;;;;;;5073837;56;21466;-30
2022/08/07 03:58:39;;;;;;;7.65;6.95;;;29.20;50.80;;;;;;4715664;56;21608;-32
2022/08/07 04:03:40;;;;;;;7.03;6.43;;;29.20;50.90;;;;;;4836058;56;21099;-33
2022/08/07 04:08:42;;;;;;;7.53;6.80;;;29.20;50.80;;;;;;4694386;56;21019;-33
2022/08/07 04:13:45;;;;;;;7.50;6.80;;;29.20;50.80;;;;;;4681174;56;21055;-31
2022/08/07 04:18:46;;;;;;;7.35;6.65;;;29.10;50.80;;;;;;4735191;56;21481;-30
2022/08/07 04:23:47;;;;;;;8.15;7.45;;;29.10;50.70;;;;;;4639081;56;21031;-32
2022/08/07 04:28:48;;;;;;;7.75;7.05;;;29.20;50.80;;;;;;4616250;60;21063;-31
2022/08/07 04:33:50;;;;;;;8.02;7.07;;;29.10;50.70;;;;;;4713529;56;21019;-31
2022/08/07 04:38:51;;;;;;;7.10;6.18;;;29.10;50.80;;;;;;4663135;56;21003;-32
2022/08/07 04:43:52;;;;;;;7.40;6.80;;;29.10;50.80;;;;;;4680157;56;21135;-31
2022/08/07 04:50:50;;;;;;;7.03;6.47;;;29.10;50.80;;;;;;4616190;60;21566;-30
2022/08/07 04:56:06;;;;;;;7.78;7.07;;;29.20;50.80;;;;;;4641540;56;21091;-34
2022/08/07 05:01:20;;;;;;;7.62;6.93;;;29.10;50.80;;;;;;4657377;56;21521;-30
2022/08/07 05:07:17;;;;;;;6.47;5.97;;;29.20;50.80;;;;;;4836296;56;21011;-34
2022/08/07 05:14:04;;;;;;;6.93;6.32;;;29.10;50.80;;;;;;4667160;56;21052;-34
2022/08/07 05:19:13;;;;;;;7.03;6.43;;;29.10;50.80;;;;;;4702937;56;21047;-33
2022/08/07 05:24:17;;;;;;;6.57;5.97;;;29.10;50.80;;;;;;4982424;56;21008;-30
2022/08/07 05:29:20;;;;;;;7.15;6.32;;;29.10;50.80;;;;;;4818211;56;21027;-30
2022/08/07 05:34:23;;;;;;;7.00;6.40;;;29.10;50.80;;;;;;4716421;56;21084;-30
2022/08/07 05:39:25;;;;;;;6.43;5.93;;;29.10;50.80;;;;;;4784136;56;21608;-30
2022/08/07 05:44:28;;;;;;;6.82;6.10;;;29.20;50.90;;;;;;4704617;56;21023;-32
2022/08/07 05:49:30;;;;;;;7.18;6.47;;;29.10;50.80;;;;;;4784732;56;21092;-31
2022/08/07 05:54:31;;;;;;;6.35;5.85;;;29.10;50.80;;;;;;4792904;56;21040;-29
2022/08/07 05:59:37;;;;;;;6.47;5.93;;;29.10;51.00;;;;;;4863328;56;21015;-32
2022/08/07 06:04:44;;;;;;;6.82;6.22;;;29.10;50.90;;;;;;4839372;56;21019;-30
2022/08/07 06:09:46;;;;;;;6.20;5.70;;;29.20;50.90;;;;;;4668982;56;21024;-31
2022/08/07 06:14:47;;;;;;;6.30;5.70;;;29.10;50.80;;;;;;4844036;56;21031;-34
2022/08/07 06:19:49;;;;;;;6.50;5.90;;;29.10;50.80;;;;;;5048380;56;21003;-34
2022/08/07 06:24:50;;;;;;;6.00;5.50;;;29.10;50.70;;;;;;4616552;56;21019;-33
2022/08/07 06:29:52;;;;;;;6.87;6.28;;;29.10;50.80;;;;;;4750487;56;21015;-31
2022/08/07 06:34:52;;;;;;;6.45;5.85;;;29.10;50.70;;;;;;4648417;56;21517;-34
2022/08/07 06:39:53;;;;;;;6.00;5.50;;;29.10;50.80;;;;;;4616276;57;21133;-32
2022/08/07 06:44:57;;;;;;;6.25;5.75;;;29.10;50.70;;;;;;4739611;56;21031;-32
2022/08/07 06:49:58;;;;;;;6.07;5.57;;;29.10;50.70;;;;;;4899054;56;21047;-31
2022/08/07 06:55:00;;;;;;;6.07;5.47;;;29.10;50.70;;;;;;4773445;56;21103;-28
2022/08/07 07:00:01;;;;;;;5.97;5.47;;;29.10;50.70;;;;;;4788011;56;21035;-31
2022/08/07 07:05:03;;;;;;;5.95;5.45;;;29.10;50.70;;;;;;4681485;56;21072;-33
2022/08/07 07:10:05;;;;;;;5.82;5.32;;;29.10;50.70;;;;;;4802288;56;21048;-32
2022/08/07 07:15:14;;;;;;;6.25;5.62;;;29.10;50.70;;;;;;4658428;56;21036;-31
2022/08/07 07:20:26;;;;;;;6.60;6.00;;;29.10;50.60;;;;;;4646343;56;21505;-33
2022/08/07 07:25:28;;;;;;;6.68;5.95;;;29.10;50.60;;;;;;4785722;56;21060;-34
2022/08/07 07:30:34;;;;;;;6.45;5.85;;;29.10;50.60;;;;;;4699738;56;21004;-30
2022/08/07 07:35:36;;;;;;;6.45;5.85;;;29.10;50.60;;;;;;4616004;60;21083;-32
2022/08/07 07:40:40;;;;;;;6.20;5.45;;;29.10;50.60;;;;;;4618722;56;21139;-33
2022/08/07 07:45:42;;;;;;;6.60;5.90;;;29.10;50.60;;;;;;4819382;56;21007;-32
2022/08/07 07:50:46;;;;;;;8.65;5.85;;;29.10;50.60;;;;;;4846652;56;21059;-32
2022/08/07 07:55:47;;;;;;;7.12;6.00;;;29.10;50.60;;;;;;4865380;56;21091;-33
2022/08/07 08:00:49;;;;;;;7.65;6.07;;;29.10;50.60;;;;;;4637789;56;21136;-31
2022/08/07 08:05:52;;;;;;;9.85;6.68;;;29.10;50.50;;;;;;4616074;60;21034;-32
2022/08/07 08:10:54;;;;;;;8.38;6.35;;;29.10;50.50;;;;;;4662683;56;21114;-31
2022/08/07 08:16:00;;;;;;;7.05;6.28;;;29.10;50.50;;;;;;4642974;56;21046;-31
2022/08/07 08:21:02;;;;;;;10.65;6.55;;;29.10;50.50;;;;;;4739230;56;21591;-33
2022/08/07 08:31:32;;;;;;;7.93;6.82;;;29.10;50.50;;;;;;4615351;56;21118;-30
2022/08/07 08:36:36;;;;;;;8.90;7.35;;;29.10;50.50;;;;;;4875731;56;21827;-33
2022/08/07 08:41:52;;;;;;;8.10;7.07;;;29.10;50.50;;;;;;4615840;56;21019;-31
2022/08/07 08:47:12;;;;;;;7.18;6.50;;;29.10;50.50;;;;;;4775978;56;21091;-36
2022/08/07 08:52:32;;;;;;;7.90;7.07;;;29.10;50.50;;;;;;4659690;56;21051;-33
2022/08/07 08:57:43;;;;;;;9.40;7.25;;;29.10;50.50;;;;;;4668894;56;21074;-31
2022/08/07 09:03:06;;;;;;;8.57;7.28;;;29.10;50.50;;;;;;4615755;56;21068;-31
2022/08/07 09:11:30;;;;;;;10.07;7.15;;;29.10;50.50;;;;;;4885503;56;21477;-32
2022/08/07 09:20:17;;;;;;;8.15;7.35;;;29.10;50.50;;;;;;4631851;56;21031;-33
2022/08/07 09:26:43;;;;;;;9.48;7.47;;;29.10;50.50;;;;;;5052836;56;21050;-32
2022/08/07 09:32:27;;;;;;;9.55;7.87;;;29.10;50.50;;;;;;4732566;56;21620;-32
2022/08/07 09:37:38;;;;;;;8.25;7.28;;;29.10;50.50;;;;;;4776548;56;21042;-33
2022/08/07 09:46:09;;;;;;;10.15;7.80;;;29.10;50.50;;;;;;4770058;56;21549;-31
2022/08/07 09:52:21;;;;;;;8.20;7.12;;;29.10;50.50;;;;;;4682060;56;21047;-32
2022/08/07 09:59:10;;;;;;;10.40;7.68;;;29.10;50.50;;;;;;4790640;56;21498;-31
2022/08/07 10:04:35;;;;;;;9.95;8.18;;;29.10;50.50;;;;;;4745942;56;21509;-32
2022/08/07 10:09:58;;;;;;;8.20;7.23;;;29.10;50.50;;;;;;4642992;56;21077;-30
2022/08/07 10:15:45;;;;;;;9.45;8.05;;;29.10;50.50;;;;;;4775995;56;21586;-31
2022/08/07 10:24:32;;;;;;;8.77;7.45;;;29.10;50.50;;;;;;4846617;56;21450;-32
2022/08/07 10:29:59;;;;;;;8.85;7.35;;;29.10;50.50;;;;;;4705316;56;21106;-33
2022/08/07 10:35:34;;;;;;;8.95;7.07;;;29.10;50.50;;;;;;4697870;56;21586;-32
2022/08/07 10:40:49;;;;;;;8.27;7.10;;;29.10;50.50;;;;;;4842559;56;21015;-32
2022/08/07 10:45:59;;;;;;;8.23;7.20;;;29.10;50.50;;;;;;4625140;56;21022;-34
2022/08/07 10:51:18;;;;;;;8.25;7.37;;;29.10;50.50;;;;;;5049946;56;21086;-34
2022/08/07 10:57:24;;;;;;;8.10;7.30;;;29.10;50.50;;;;;;4805941;56;21047;-32
2022/08/07 11:07:42;;;;;;;9.05;7.57;;;29.10;50.50;;;;;;4616290;56;21015;-32
2022/08/07 11:14:27;;;;;;;8.60;7.25;;;29.10;50.50;;;;;;4743035;56;21576;-35
2022/08/07 11:21:38;;;;;;;8.05;7.25;;;29.10;50.50;;;;;;4685436;56;21088;-31
2022/08/07 11:26:52;;;;;;;8.45;7.65;;;29.10;50.50;;;;;;4786903;56;21178;-34
2022/08/07 11:32:13;;;;;;;8.75;7.85;;;29.20;50.60;;;;;;4763784;56;21604;-32
2022/08/07 11:43:50;;;;;;;8.68;7.40;;;29.10;50.60;;;;;;4706541;56;21116;-32
2022/08/07 11:49:25;;;;;;;9.70;7.62;;;29.10;50.60;;;;;;4681300;56;21103;-33
2022/08/07 11:55:00;;;;;;;7.93;7.22;;;29.10;50.60;;;;;;4764320;56;21597;-31
2022/08/07 12:00:23;;;;;;;7.75;6.95;;;29.10;50.60;;;;;;4757439;56;21079;-30
2022/08/07 12:06:33;;;;;;;8.35;7.55;;;29.10;50.60;;;;;;4629474;56;21077;-31
2022/08/07 12:11:43;;;;;;;8.57;7.68;;;29.10;50.60;;;;;;4798483;56;21107;-30
2022/08/07 12:17:04;;;;;;;9.27;7.65;;;29.10;50.70;;;;;;4723297;56;21119;-32
2022/08/07 12:22:50;;;;;;;8.50;7.70;;;29.10;50.60;;;;;;4792422;56;21070;-30
2022/08/07 12:27:58;;;;;;;8.70;7.80;;;29.10;50.60;;;;;;4618297;56;21089;-32
2022/08/07 12:33:11;;;;;;;8.60;7.75;;;29.10;50.70;;;;;;4647052;56;21490;-32
2022/08/07 12:38:13;;;;;;;8.00;7.20;;;29.20;50.70;;;;;;4791504;56;21111;-34
2022/08/07 12:43:19;;;;;;;9.07;7.75;;;29.10;50.60;;;;;;4660568;56;21018;-31
2022/08/07 12:50:00;;;;;;;8.85;7.95;;;29.10;50.70;;;;;;4616398;60;21023;-32
2022/08/07 12:56:26;;;;;;;8.10;7.30;;;29.10;50.70;;;;;;4641808;56;21606;-33
2022/08/07 13:02:41;;;;;;;9.18;7.87;;;29.10;50.70;;;;;;4615838;60;21095;-30
2022/08/07 13:08:11;;;;;;;8.10;7.35;;;29.10;50.70;;;;;;4834649;56;21549;-31
2022/08/07 13:13:43;;;;;;;7.95;7.15;;;29.10;50.70;;;;;;5073591;56;21585;-29
2022/08/07 13:19:25;;;;;;;7.65;6.95;;;29.10;51.00;;;;;;4779437;56;21095;-33
2022/08/07 13:24:35;;;;;;;8.52;7.72;;;29.10;50.70;;;;;;4667235;56;21015;-34
2022/08/07 13:30:21;;;;;;;8.40;7.60;;;29.20;50.80;;;;;;4643888;56;21079;-33
2022/08/07 13:35:45;;;;;;;8.27;7.40;;;29.20;50.90;;;;;;4644677;56;21032;-31
2022/08/07 13:42:09;;;;;;;8.57;7.68;;;29.20;50.90;;;;;;4908682;56;21083;-33
2022/08/07 13:47:13;;;;;;;8.40;7.57;;;29.20;50.90;;;;;;4616356;57;21546;-32
2022/08/07 13:52:15;;;;;;;8.15;7.35;;;29.20;50.90;;;;;;4671963;56;21692;-34
2022/08/07 13:57:17;;;;;;;8.63;7.60;;;29.20;50.90;;;;;;4646643;56;21055;-32
2022/08/07 14:02:25;;;;;;;8.27;7.50;;;29.20;50.90;;;;;;4627721;56;21413;-31
2022/08/07 14:07:30;;;;;;;8.38;7.50;;;29.20;50.90;;;;;;4658395;56;21020;-31
2022/08/07 14:12:58;;;;;;;8.63;7.72;;;29.20;51.00;;;;;;4910681;56;21056;-31
2022/08/07 14:18:04;;;;;;;8.32;7.53;;;29.20;51.00;;;;;;4624400;56;21019;-31
2022/08/07 14:23:13;;;;;;;7.87;7.18;;;29.20;50.90;;;;;;4751150;56;21044;-34
2022/08/07 14:28:17;;;;;;;8.05;7.35;;;29.20;51.00;;;;;;4722287;56;21108;-28
2022/08/07 14:33:20;;;;;;;8.32;7.57;;;29.20;51.00;;;;;;4776986;56;21585;-32
2022/08/07 14:38:24;;;;;;;8.18;7.47;;;29.20;51.00;;;;;;4743607;56;21027;-30
2022/08/07 14:43:28;;;;;;;8.50;7.70;;;29.20;51.00;;;;;;5011379;56;21027;-30
2022/08/07 14:48:35;;;;;;;8.07;7.28;;;29.20;51.00;;;;;;4683969;56;21537;-32
2022/08/07 14:53:40;;;;;;;8.10;7.30;;;29.20;51.00;;;;;;5006556;56;21501;-30
2022/08/07 14:58:47;;;;;;;8.93;7.60;;;29.20;51.00;;;;;;4955761;56;21541;-33
2022/08/07 15:03:48;;;;;;;8.27;7.47;;;29.20;51.00;;;;;;4635350;56;21039;-32
2022/08/07 15:08:51;;;;;;;8.55;7.75;;;29.20;51.00;;;;;;4668124;56;21083;-34
2022/08/07 15:13:59;;;;;;;8.85;7.95;;;29.20;51.00;;;;;;5060096;56;21556;-33
2022/08/07 15:19:04;;;;;;;8.38;7.57;;;29.20;51.00;;;;;;4835736;56;21027;-33
2022/08/07 15:24:10;;;;;;;8.00;7.30;;;29.20;51.00;;;;;;4720951;56;21083;-31
2022/08/07 15:29:16;;;;;;;8.20;7.40;;;29.20;51.10;;;;;;4650302;56;21017;-30
2022/08/07 15:34:19;;;;;;;7.85;7.15;;;29.20;51.10;;;;;;4683761;56;21035;-31
2022/08/07 15:39:24;;;;;;;8.80;7.90;;;29.10;51.00;;;;;;4754814;56;21030;-32
2022/08/07 15:44:28;;;;;;;8.68;7.87;;;29.20;51.10;;;;;;4644957;56;21537;-31
2022/08/07 15:49:32;;;;;;;8.07;7.30;;;29.20;51.10;;;;;;4616258;56;21075;-34
2022/08/07 15:54:37;;;;;;;8.18;7.37;;;29.20;51.10;;;;;;4631507;56;21573;-33
2022/08/07 15:59:41;;;;;;;8.75;7.80;;;29.20;51.10;;;;;;4652659;56;21156;-34
2022/08/07 16:04:43;;;;;;;7.78;7.07;;;29.20;51.10;;;;;;4616262;60;21062;-32
2022/08/07 16:09:52;;;;;;;8.13;7.37;;;29.20;51.10;;;;;;4615717;60;21071;-31
2022/08/07 16:21:35;;;;;;;7.90;7.20;;;29.20;51.20;;;;;;4647075;56;21501;-32
2022/08/07 16:27:07;;;;;;;8.55;7.75;;;29.20;51.10;;;;;;4705226;56;21072;-31
2022/08/07 16:32:13;;;;;;;8.00;7.20;;;29.20;51.20;;;;;;4656252;56;21018;-31
2022/08/07 16:40:58;;;;;;;8.48;7.57;;;29.20;51.20;;;;;;4659711;56;21044;-35
2022/08/07 16:46:34;;;;;;;7.90;7.10;;;29.20;51.20;;;;;;4894391;56;21529;-34
2022/08/07 16:55:49;;;;;;;8.27;7.47;;;29.20;51.20;;;;;;4727720;56;21028;-33
2022/08/07 17:01:14;;;;;;;8.40;7.60;;;29.20;51.20;;;;;;4863713;56;21103;-33
2022/08/07 17:06:42;;;;;;;7.82;7.10;;;29.20;51.30;;;;;;4745462;56;21039;-35
2022/08/07 17:11:54;;;;;;;7.87;7.18;;;29.20;51.30;;;;;;4739190;56;21040;-31
2022/08/07 17:16:59;;;;;;;7.60;6.90;;;29.20;51.30;;;;;;4658745;56;21208;-32
2022/08/07 17:22:07;;;;;;;7.90;7.10;;;29.20;51.30;;;;;;4682453;56;21139;-31
2022/08/07 17:27:30;;;;;;;8.52;7.72;;;29.20;51.30;;;;;;4773684;56;21195;-34
2022/08/07 17:32:57;;;;;;;8.20;7.43;;;29.20;51.30;;;;;;4956627;56;21031;-32
2022/08/07 17:38:18;;;;;;;7.97;7.22;;;29.20;51.30;;;;;;4700291;56;21051;-31
2022/08/07 17:43:26;;;;;;;7.60;6.97;;;29.20;51.40;;;;;;4615843;60;21063;-31
2022/08/07 17:48:33;;;;;;;8.40;7.57;;;29.20;51.30;;;;;;4655971;56;21123;-33
2022/08/07 17:54:27;;;;;;;7.93;7.22;;;29.20;51.40;;;;;;4690258;56;21525;-32
2022/08/07 17:59:41;;;;;;;8.02;7.10;;;29.20;51.40;;;;;;4654181;56;21553;-32
2022/08/07 18:05:04;;;;;;;8.00;7.25;;;29.20;51.40;;;;;;4832339;56;21015;-32
2022/08/07 18:11:43;;;;;;;8.20;7.40;;;29.20;51.40;;;;;;4644041;56;21095;-30
2022/08/07 18:17:22;;;;;;;7.78;7.12;;;29.20;51.50;;;;;;4634603;56;21103;-31
2022/08/07 18:22:38;;;;;;;7.95;7.25;;;29.20;51.50;;;;;;4681038;56;21617;-35
2022/08/07 18:31:33;;;;;;;8.50;7.70;;;29.20;51.60;;;;;;4759609;56;21556;-34
2022/08/07 18:38:15;;;;;;;7.90;7.10;;;29.20;51.50;;;;;;4690927;56;21099;-31
2022/08/07 18:43:52;;;;;;;7.72;7.03;;;29.20;51.50;;;;;;4718308;56;21023;-33
2022/08/07 18:49:08;;;;;;;8.68;7.87;;;29.30;51.70;;;;;;4936583;56;21067;-33
2022/08/07 18:54:15;;;;;;;;;;;29.20;51.60;;;;;;5077047;56;20992;-33
2022/08/07 19:03:11;;;;;;;8.10;7.30;;;29.20;52.20;;;;;;4781563;56;20078;-32
2022/08/07 19:09:01;;;;;;;9.48;8.57;;;29.20;51.60;;;;;;4632571;56;21008;-30
2022/08/07 19:14:36;;;;;;;9.27;8.38;;;29.20;51.70;;;;;;4690777;56;21054;-32
2022/08/07 19:22:22;;;;;;;9.55;8.65;;;29.20;51.80;;;;;;4666511;56;21019;-32
2022/08/07 19:27:27;;;;;;;10.20;8.43;;;29.20;51.80;;;;;;4815529;56;21506;-32
2022/08/07 19:32:31;;;;;;;9.77;8.77;;;29.20;51.70;;;;;;4748552;56;21486;-34
2022/08/07 19:37:35;;;;;;;9.07;8.18;;;29.20;52.00;;;;;;4831072;56;21171;-31
2022/08/07 19:42:41;;;;;;;10.30;9.20;;;29.20;51.80;;;;;;4802229;56;21125;-35
2022/08/07 19:47:46;;;;;;;9.80;8.90;;;29.20;51.90;;;;;;4831801;56;21490;-32
2022/08/07 19:52:47;;;;;;;9.67;8.67;;;29.20;51.90;;;;;;4688446;56;21015;-31
2022/08/07 19:57:53;;;;;;;10.10;9.07;;;29.20;51.90;;;;;;4652743;56;21048;-35
2022/08/07 20:03:04;;;;;;;9.50;8.60;;;29.20;51.90;;;;;;4644601;56;21035;-33
2022/08/07 20:08:10;;;;;;;9.93;8.93;;;29.20;51.90;;;;;;4966070;56;21007;-31
2022/08/07 20:13:17;;;;;;;10.43;9.32;;;29.20;51.90;;;;;;4947066;56;21119;-31
2022/08/07 20:18:19;;;;;;;11.35;9.18;;;29.20;51.90;;;;;;4836899;56;21100;-33
2022/08/07 20:23:20;;;;;;;10.40;9.35;;;29.20;51.90;;;;;;4616061;60;21027;-31
2022/08/07 20:28:29;;;;;;;9.75;8.85;;;29.20;51.90;;;;;;4615675;60;21572;-34
2022/08/07 20:33:31;;;;;;;10.35;9.25;;;29.20;52.00;;;;;;4727879;56;21493;-33
2022/08/07 20:38:33;;;;;;;11.12;9.93;;;29.20;52.00;;;;;;4616055;56;21660;-32
2022/08/07 20:43:35;;;;;;;10.35;9.32;;;29.20;52.00;;;;;;4615952;60;21023;-33
2022/08/07 20:48:37;;;;;;;10.18;9.10;;;29.20;52.00;;;;;;4616170;60;21007;-32
2022/08/07 20:53:38;;;;;;;9.95;8.95;;;29.20;52.10;;;;;;4646775;56;21473;-33
2022/08/07 20:58:46;;;;;;;9.63;8.73;;;29.20;52.10;;;;;;4958163;56;21040;-32
2022/08/07 21:03:52;;;;;;;10.18;9.18;;;29.20;52.10;;;;;;4916360;56;21692;-33
2022/08/07 21:09:06;;;;;;;9.77;8.77;;;29.20;52.10;;;;;;4712399;56;21552;-31
2022/08/07 21:14:24;;;;;;;9.75;8.85;;;29.20;52.20;;;;;;4630585;56;21039;-33
2022/08/07 21:19:31;;;;;;;10.50;9.45;;;29.20;52.20;;;;;;4730752;56;21136;-31
2022/08/07 21:27:23;;;;;;;11.43;9.52;;;29.20;52.20;;;;;;4918959;56;21143;-33
2022/08/07 21:33:16;;;;;;;9.60;8.70;;;29.20;52.30;;;;;;4722025;56;21087;-32
2022/08/07 21:38:31;;;;;;;10.45;9.35;;;29.20;52.30;;;;;;4787535;56;21530;-31
2022/08/07 21:43:49;;;;;;;9.25;8.40;;;29.20;52.30;;;;;;5074403;56;21007;-41
2022/08/07 21:49:05;;;;;;;10.27;9.18;;;29.20;52.40;;;;;;4845241;56;21072;-34
2022/08/07 21:54:32;;;;;;;;;;;29.20;52.30;;;;;;4619429;60;21011;-34
2022/08/07 22:00:04;;;;;;;9.85;8.85;;;29.20;52.30;;;;;;4622370;56;20055;-33
2022/08/07 22:05:08;;;;;;;9.73;8.65;;;29.20;52.40;;;;;;4836139;56;21031;-29
2022/08/07 22:10:14;;;;;;;9.25;8.38;;;29.20;52.50;;;;;;4760124;56;21058;-31
2022/08/07 22:15:37;;;;;;;9.80;8.80;;;29.20;52.50;;;;;;4634398;56;21091;-31
2022/08/07 22:22:04;;;;;;;9.75;8.80;;;29.20;52.40;;;;;;4643479;56;21075;-31
2022/08/07 22:27:30;;;;;;;10.02;9.02;;;29.20;52.50;;;;;;4781151;56;21035;-30
2022/08/07 22:33:08;;;;;;;9.30;8.35;;;29.20;52.50;;;;;;4616750;56;21011;-33
2022/08/07 22:41:04;;;;;;;9.77;8.77;;;29.20;52.50;;;;;;4655061;56;21051;-30
2022/08/07 22:49:22;;;;;;;9.73;8.82;;;29.20;52.60;;;;;;4736048;56;21111;-33
2022/08/07 22:54:55;;;;;;;9.57;8.68;;;29.10;52.40;;;;;;4864642;56;21486;-34
2022/08/07 23:00:22;;;;;;;9.30;8.38;;;29.20;52.60;;;;;;4879019;56;21044;-31
2022/08/07 23:05:48;;;;;;;10.05;9.10;;;29.20;52.60;;;;;;4616462;56;21024;-30
2022/08/07 23:11:39;;;;;;;10.25;9.05;;;29.20;52.60;;;;;;4638206;56;21518;-35
2022/08/07 23:26:40;;;;;;;9.73;8.65;;;29.20;52.60;;;;;;4615899;56;21102;-32
2022/08/07 23:32:20;;;;;;;9.05;7.80;;;29.10;52.50;;;;;;4815534;56;21015;-33
2022/08/07 23:41:11;;;;;;;9.52;8.50;;;29.20;52.60;;;;;;4893484;56;21087;-33
2022/08/07 23:51:49;;;;;;;8.82;7.78;;;29.10;52.60;;;;;;4727374;56;21099;-32
2022/08/07 23:57:02;;;;;;;8.82;7.95;;;29.20;52.70;;;;;;4665440;56;21480;-34
